Time;durP1;ratioP1;P1;durP2;ratioP2;P2;SDS_P1;SDS_P2;PMS_P1;PMS_P2;Temp;Humidity;BMP_temperature;BMP_pressure;BME280_temperature;BME280_humidity;BME280_pressure;Samples;Min_cycle;Max_cycle;Signal;HPM_P1;HPM_P2
2022/06/28 00:02:19;;;;;;;;;2.67;2.33;;;;;-147.17;100.00;59696.56;4997717;28;51305;-71
2022/06/28 00:04:44;;;;;;;;;2.33;2.33;;;;;-147.17;100.00;59696.56;4994936;28;51680;-69
2022/06/28 00:07:10;;;;;;;;;4.00;3.00;;;;;-147.17;100.00;59696.56;5007434;28;51149;-68
2022/06/28 00:09:35;;;;;;;;;3.33;3.33;;;;;-147.17;100.00;59696.56;4996287;28;51156;-70
2022/06/28 00:12:01;;;;;;;;;3.00;3.00;;;;;-147.17;100.00;59696.56;5009781;28;51523;-69
2022/06/28 00:17:12;;;;;;;;;1.67;1.67;;;;;-147.17;100.00;59696.56;5018691;28;51013;-69
2022/06/28 00:19:38;;;;;;;;;4.00;3.00;;;;;-147.17;100.00;59696.56;4994439;28;51369;-70
2022/06/28 00:22:04;;;;;;;;;1.67;1.67;;;;;-147.17;100.00;59696.56;5012206;28;51424;-70
2022/06/28 00:24:30;;;;;;;;;3.00;2.33;;;;;-147.17;100.00;59696.56;5011759;28;51735;-70
2022/06/28 00:26:55;;;;;;;;;2.00;1.00;;;;;-147.17;100.00;59696.56;4998331;28;51058;-70
2022/06/28 00:29:21;;;;;;;;;2.67;2.67;;;;;-147.17;100.00;59696.56;5000712;28;51142;-70
2022/06/28 00:31:46;;;;;;;;;1.33;1.33;;;;;-147.17;100.00;59696.56;4996809;28;51707;-69
2022/06/28 00:34:12;;;;;;;;;3.00;2.67;;;;;-147.17;100.00;59696.56;4999389;28;51871;-70
2022/06/28 00:36:39;;;;;;;;;1.67;0.67;;;;;-147.17;100.00;59696.56;4998357;28;51172;-70
2022/06/28 00:39:05;;;;;;;;;2.67;2.67;;;;;-147.17;100.00;59696.56;5004602;28;51125;-70
2022/06/28 00:41:31;;;;;;;;;1.33;0.67;;;;;-147.17;100.00;59696.56;5008547;28;51181;-70
2022/06/28 00:43:57;;;;;;;;;2.00;2.00;;;;;-147.17;100.00;59696.56;4998451;28;52162;-70
2022/06/28 00:46:23;;;;;;;;;3.00;3.00;;;;;-147.17;100.00;59696.56;5015827;28;50875;-68
2022/06/28 00:48:48;;;;;;;;;1.33;1.00;;;;;-147.17;100.00;59696.56;5011958;28;51141;-68
2022/06/28 00:51:14;;;;;;;;;0.67;0.67;;;;;-147.17;100.00;59696.56;5001400;28;51326;-68
2022/06/28 00:53:39;;;;;;;;;1.67;0.67;;;;;-147.17;100.00;59696.56;5001985;28;51638;-69
2022/06/28 00:56:05;;;;;;;;;1.33;1.00;;;;;-147.17;100.00;59696.56;5008197;28;51002;-68
2022/06/28 00:58:31;;;;;;;;;4.67;4.00;;;;;-147.17;100.00;59696.56;5007352;28;51152;-71
2022/06/28 01:00:56;;;;;;;;;1.67;1.00;;;;;-147.17;100.00;59696.56;4995690;28;51399;-69
2022/06/28 01:03:24;;;;;;;;;2.67;1.67;;;;;-147.17;100.00;59696.56;5000536;28;51837;-69
2022/06/28 01:05:52;;;;;;;;;1.00;1.00;;;;;-147.17;100.00;59696.56;5005109;28;51095;-70
2022/06/28 01:08:18;;;;;;;;;2.67;2.00;;;;;-147.17;100.00;59696.56;4995682;28;51215;-69
2022/06/28 01:10:44;;;;;;;;;3.00;3.00;;;;;-147.17;100.00;59696.56;4999913;28;51365;-69
2022/06/28 01:13:10;;;;;;;;;2.00;2.00;;;;;-147.17;100.00;59696.56;5012843;28;50921;-69
2022/06/28 01:15:37;;;;;;;;;3.67;3.67;;;;;-147.17;100.00;59696.56;5011652;28;50935;-69
2022/06/28 01:18:04;;;;;;;;;2.00;2.00;;;;;-147.17;100.00;59696.56;5019275;28;51043;-68
2022/06/28 01:20:30;;;;;;;;;1.67;1.67;;;;;-147.17;100.00;59696.56;5010154;28;51156;-69
2022/06/28 01:22:56;;;;;;;;;3.00;2.33;;;;;-147.17;100.00;59696.56;5010321;28;52780;-69
2022/06/28 01:25:23;;;;;;;;;2.00;1.00;;;;;-147.17;100.00;59696.56;5003078;28;51089;-68
2022/06/28 01:27:50;;;;;;;;;2.00;2.00;;;;;-147.17;100.00;59696.56;4993738;28;51011;-69
2022/06/28 01:30:15;;;;;;;;;2.00;2.00;;;;;-147.17;100.00;59696.56;5000381;28;51101;-70
2022/06/28 01:32:41;;;;;;;;;2.00;2.00;;;;;-147.17;100.00;59696.56;4992116;28;51171;-68
2022/06/28 01:35:08;;;;;;;;;1.33;1.33;;;;;-147.17;100.00;59696.56;5003492;28;51172;-69
2022/06/28 01:37:34;;;;;;;;;2.67;2.67;;;;;-147.17;100.00;59696.56;5011173;28;51260;-69
2022/06/28 01:40:00;;;;;;;;;2.00;2.00;;;;;-147.17;100.00;59696.56;5004005;28;51363;-69
2022/06/28 01:42:28;;;;;;;;;1.33;1.33;;;;;-147.17;100.00;59696.56;4996774;28;51102;-68
2022/06/28 01:44:53;;;;;;;;;3.00;2.00;;;;;-147.17;100.00;59696.56;5010904;28;51240;-69
2022/06/28 01:47:22;;;;;;;;;3.00;2.00;;;;;-147.17;100.00;59696.56;5005859;28;51033;-69
2022/06/28 01:49:49;;;;;;;;;3.00;2.67;;;;;-147.17;100.00;59696.56;5006105;28;51248;-70
2022/06/28 01:52:15;;;;;;;;;2.67;2.67;;;;;-147.17;100.00;59696.56;5004715;28;53510;-69
2022/06/28 01:54:41;;;;;;;;;1.33;1.33;;;;;-147.17;100.00;59696.56;5001754;28;51056;-71
2022/06/28 01:57:06;;;;;;;;;1.00;1.00;;;;;-147.17;100.00;59696.56;5013473;28;51098;-69
2022/06/28 01:59:33;;;;;;;;;1.00;1.00;;;;;-147.17;100.00;59696.56;5012219;28;50968;-70
2022/06/28 02:01:58;;;;;;;;;2.00;1.00;;;;;-147.17;100.00;59696.56;5009812;28;52013;-69
2022/06/28 02:04:26;;;;;;;;;3.00;2.67;;;;;-147.17;100.00;59696.56;4996682;28;51011;-69
2022/06/28 02:06:54;;;;;;;;;1.00;1.00;;;;;-147.17;100.00;59696.56;5011383;28;51053;-68
2022/06/28 02:09:19;;;;;;;;;0.00;0.00;;;;;-147.17;100.00;59696.56;5006238;28;51283;-69
2022/06/28 02:11:45;;;;;;;;;2.00;1.67;;;;;-147.17;100.00;59696.56;4992882;28;51168;-70
2022/06/28 02:14:11;;;;;;;;;1.67;1.67;;;;;-147.17;100.00;59696.56;4993884;28;51120;-70
2022/06/28 02:16:36;;;;;;;;;3.00;2.00;;;;;-147.17;100.00;59696.56;5002181;28;50994;-70
2022/06/28 02:19:02;;;;;;;;;2.00;2.00;;;;;-147.17;100.00;59696.56;4999282;28;51379;-69
2022/06/28 02:21:29;;;;;;;;;1.67;1.33;;;;;-147.17;100.00;59696.56;5006203;28;52198;-70
2022/06/28 02:23:55;;;;;;;;;1.67;0.67;;;;;-147.17;100.00;59696.56;5002545;28;51169;-70
2022/06/28 02:26:21;;;;;;;;;1.00;1.00;;;;;-147.17;100.00;59696.56;4997846;28;51092;-70
2022/06/28 02:28:46;;;;;;;;;1.00;1.00;;;;;-147.17;100.00;59696.56;4995973;28;51072;-68
2022/06/28 02:31:14;;;;;;;;;1.00;1.00;;;;;-147.17;100.00;59696.56;4995629;28;51433;-69
2022/06/28 02:33:42;;;;;;;;;2.00;1.33;;;;;-147.17;100.00;59696.56;4994101;28;50904;-69
2022/06/28 02:41:38;;;;;;;;;2.00;2.00;;;;;-147.17;100.00;59696.56;4997578;28;51595;-71
2022/06/28 02:44:04;;;;;;;;;1.00;1.00;;;;;-147.17;100.00;59696.56;4993284;28;51059;-71
2022/06/28 02:46:29;;;;;;;;;2.00;2.00;;;;;-147.17;100.00;59696.56;5007825;28;50987;-71
2022/06/28 02:48:55;;;;;;;;;1.67;1.00;;;;;-147.17;100.00;59696.56;5004255;28;51442;-68
2022/06/28 02:51:20;;;;;;;;;1.00;1.00;;;;;-147.17;100.00;59696.56;5007197;28;50914;-67
2022/06/28 02:53:46;;;;;;;;;1.33;1.00;;;;;-147.17;100.00;59696.56;5009793;28;51129;-71
2022/06/28 02:56:13;;;;;;;;;1.67;1.33;;;;;-147.17;100.00;59696.56;5011321;28;51617;-70
2022/06/28 02:58:39;;;;;;;;;1.67;1.67;;;;;-147.17;100.00;59696.56;5010553;28;51322;-69
2022/06/28 03:01:04;;;;;;;;;2.00;2.00;;;;;-147.17;100.00;59696.56;5021325;28;52376;-68
2022/06/28 03:03:30;;;;;;;;;2.00;1.67;;;;;-147.17;100.00;59696.56;5004460;28;51010;-70
2022/06/28 03:05:55;;;;;;;;;2.00;2.00;;;;;-147.17;100.00;59696.56;5000308;28;51122;-69
2022/06/28 03:08:21;;;;;;;;;1.00;1.00;;;;;-147.17;100.00;59696.56;5009921;28;51398;-70
2022/06/28 03:10:46;;;;;;;;;3.00;2.00;;;;;-147.17;100.00;59696.56;5012929;28;52062;-69
2022/06/28 03:13:12;;;;;;;;;2.33;2.33;;;;;-147.17;100.00;59696.56;5017247;28;51006;-69
2022/06/28 03:15:37;;;;;;;;;1.67;1.67;;;;;-147.17;100.00;59696.56;5019514;28;51226;-69
2022/06/28 03:18:02;;;;;;;;;1.67;1.33;;;;;-147.17;100.00;59696.56;5021745;28;51340;-69
2022/06/28 03:20:28;;;;;;;;;2.00;2.00;;;;;-147.17;100.00;59696.56;5009576;28;51010;-69
2022/06/28 03:22:54;;;;;;;;;1.67;1.00;;;;;-147.17;100.00;59696.56;5013976;28;50946;-69
2022/06/28 03:25:20;;;;;;;;;3.00;2.00;;;;;-147.17;100.00;59696.56;5016369;28;51013;-70
2022/06/28 03:27:46;;;;;;;;;1.67;1.00;;;;;-147.17;100.00;59696.56;5000719;28;50875;-69
2022/06/28 03:30:13;;;;;;;;;1.33;1.33;;;;;-147.17;100.00;59696.56;5004295;28;51836;-69
2022/06/28 03:32:38;;;;;;;;;1.00;1.00;;;;;-147.17;100.00;59696.56;5002601;28;51132;-69
2022/06/28 03:35:04;;;;;;;;;2.00;2.00;;;;;-147.17;100.00;59696.56;5006145;28;51014;-68
2022/06/28 03:37:33;;;;;;;;;1.33;1.33;;;;;-147.17;100.00;59696.56;5004111;28;51430;-69
2022/06/28 03:39:58;;;;;;;;;3.00;2.00;;;;;-147.17;100.00;59696.56;5005481;28;52031;-69
2022/06/28 03:42:24;;;;;;;;;1.67;1.67;;;;;-147.17;100.00;59696.56;5004500;28;50953;-69
2022/06/28 03:44:50;;;;;;;;;1.00;1.00;;;;;-147.17;100.00;59696.56;5008438;28;51158;-70
2022/06/28 03:47:15;;;;;;;;;1.00;1.00;;;;;-147.17;100.00;59696.56;5016843;28;51379;-71
2022/06/28 03:49:42;;;;;;;;;2.00;2.00;;;;;-147.17;100.00;59696.56;5010997;28;50928;-70
2022/06/28 03:52:07;;;;;;;;;1.00;1.00;;;;;-147.17;100.00;59696.56;5006205;28;51171;-70
2022/06/28 03:54:34;;;;;;;;;3.00;2.33;;;;;-147.17;100.00;59696.56;4999481;28;51148;-69
2022/06/28 03:56:59;;;;;;;;;1.67;1.67;;;;;-147.17;100.00;59696.56;4995522;28;51438;-70
2022/06/28 03:59:25;;;;;;;;;2.00;1.67;;;;;-147.17;100.00;59696.56;5009287;28;52000;-69
2022/06/28 04:01:51;;;;;;;;;1.33;1.00;;;;;-147.17;100.00;59696.56;5007889;28;51115;-70
2022/06/28 04:04:18;;;;;;;;;0.00;0.00;;;;;-147.17;100.00;59696.56;4998961;28;50986;-70
2022/06/28 04:06:43;;;;;;;;;1.00;1.00;;;;;-147.17;100.00;59696.56;5007701;28;51532;-70
2022/06/28 04:09:10;;;;;;;;;2.00;2.00;;;;;-147.17;100.00;59696.56;4994756;28;50872;-70
2022/06/28 04:11:36;;;;;;;;;2.33;2.00;;;;;-147.17;100.00;59696.56;4994158;28;51155;-69
2022/06/28 04:14:02;;;;;;;;;1.33;1.00;;;;;-147.17;100.00;59696.56;5028034;28;51096;-68
2022/06/28 04:16:27;;;;;;;;;1.67;1.67;;;;;-147.17;100.00;59696.56;5010878;28;51185;-69
2022/06/28 04:18:54;;;;;;;;;2.00;2.00;;;;;-147.17;100.00;59696.56;4996183;28;51412;-70
2022/06/28 04:21:20;;;;;;;;;1.00;1.00;;;;;-147.17;100.00;59696.56;4994700;28;51090;-69
2022/06/28 04:23:46;;;;;;;;;0.00;0.00;;;;;-147.17;100.00;59696.56;4994997;28;51247;-70
2022/06/28 04:26:13;;;;;;;;;1.33;1.33;;;;;-147.17;100.00;59696.56;4998162;28;51085;-69
2022/06/28 04:28:40;;;;;;;;;2.00;1.33;;;;;-147.17;100.00;59696.56;5000226;28;51770;-68
2022/06/28 04:31:06;;;;;;;;;1.00;1.00;;;;;-147.17;100.00;59696.56;5005246;28;51219;-69
2022/06/28 04:33:33;;;;;;;;;3.00;1.33;;;;;-147.17;100.00;59696.56;4995272;28;51077;-70
2022/06/28 04:35:58;;;;;;;;;2.00;2.00;;;;;-147.17;100.00;59696.56;5004189;28;51300;-69
2022/06/28 04:38:23;;;;;;;;;1.00;1.00;;;;;-147.17;100.00;59696.56;4995075;28;51758;-69
2022/06/28 04:40:49;;;;;;;;;2.00;2.00;;;;;-147.17;100.00;59696.56;5009346;28;51120;-69
2022/06/28 04:43:14;;;;;;;;;3.00;3.00;;;;;-147.17;100.00;59696.56;4985217;28;51442;-70
2022/06/28 04:45:43;;;;;;;;;2.00;2.00;;;;;-147.17;100.00;59696.56;5013505;28;51322;-70
2022/06/28 04:48:10;;;;;;;;;2.00;1.00;;;;;-147.17;100.00;59696.56;4998746;28;51976;-68
2022/06/28 04:50:35;;;;;;;;;1.00;1.00;;;;;-147.17;100.00;59696.56;5006611;28;50959;-70
2022/06/28 04:53:01;;;;;;;;;1.33;1.33;;;;;-147.17;100.00;59696.56;4999866;28;50930;-69
2022/06/28 04:55:26;;;;;;;;;0.00;0.00;;;;;-147.17;100.00;59696.56;5000095;28;51283;-69
2022/06/28 04:57:54;;;;;;;;;1.00;1.00;;;;;-147.17;100.00;59696.56;5011439;28;51903;-69
2022/06/28 05:00:21;;;;;;;;;2.00;1.00;;;;;-147.17;100.00;59696.56;5010092;28;51145;-70
2022/06/28 05:02:50;;;;;;;;;1.00;1.00;;;;;-147.17;100.00;59696.56;5004203;28;51202;-68
2022/06/28 05:05:15;;;;;;;;;1.00;1.00;;;;;-147.17;100.00;59696.56;5013364;28;50967;-70
2022/06/28 05:07:41;;;;;;;;;2.00;1.00;;;;;-147.17;100.00;59696.56;5012920;28;51197;-70
2022/06/28 05:10:07;;;;;;;;;1.00;1.00;;;;;-147.17;100.00;59696.56;5013168;28;51103;-71
2022/06/28 05:12:32;;;;;;;;;0.00;0.00;;;;;-147.17;100.00;59696.56;5002704;28;51181;-70
2022/06/28 05:14:58;;;;;;;;;2.00;2.00;;;;;-147.17;100.00;59696.56;5013385;28;50899;-69
2022/06/28 05:17:23;;;;;;;;;1.33;1.33;;;;;-147.17;100.00;59696.56;5022287;28;51118;-69
2022/06/28 05:19:50;;;;;;;;;1.00;1.00;;;;;-147.17;100.00;59696.56;5012678;28;51217;-69
2022/06/28 05:22:16;;;;;;;;;1.00;1.00;;;;;-147.17;100.00;59696.56;5011313;28;51040;-69
2022/06/28 05:24:42;;;;;;;;;0.00;0.00;;;;;-147.17;100.00;59696.56;5005972;28;51241;-70
2022/06/28 05:27:07;;;;;;;;;2.00;1.00;;;;;-147.17;100.00;59696.56;4992366;28;50999;-69
2022/06/28 05:29:34;;;;;;;;;1.00;1.00;;;;;-147.17;100.00;59696.56;5000535;28;51115;-69
2022/06/28 05:32:00;;;;;;;;;1.00;1.00;;;;;-147.17;100.00;59696.56;5002587;28;51371;-69
2022/06/28 05:34:26;;;;;;;;;1.33;1.00;;;;;-147.17;100.00;59696.56;5007500;28;51418;-69
2022/06/28 05:36:51;;;;;;;;;1.00;1.00;;;;;-147.17;100.00;59696.56;5008459;28;51834;-70
2022/06/28 05:39:17;;;;;;;;;1.00;0.00;;;;;-147.17;100.00;59696.56;5002808;28;51128;-68
2022/06/28 05:41:43;;;;;;;;;2.00;2.00;;;;;-147.17;100.00;59696.56;5022522;28;51171;-70
2022/06/28 05:44:10;;;;;;;;;1.00;1.00;;;;;-147.17;100.00;59696.56;5009296;28;51435;-69
2022/06/28 05:46:36;;;;;;;;;1.00;1.00;;;;;-147.17;100.00;59696.56;5008716;28;52265;-69
2022/06/28 05:49:01;;;;;;;;;2.00;2.00;;;;;-147.17;100.00;59696.56;5009474;28;51186;-70
2022/06/28 05:51:29;;;;;;;;;1.00;1.00;;;;;-147.17;100.00;59696.56;4998967;28;52310;-70
2022/06/28 05:53:55;;;;;;;;;3.33;2.00;;;;;-147.17;100.00;59696.56;5005888;28;51186;-69
2022/06/28 05:56:20;;;;;;;;;1.00;0.33;;;;;-147.17;100.00;59696.56;5010204;28;51744;-71
2022/06/28 05:58:46;;;;;;;;;1.00;0.00;;;;;-147.17;100.00;59696.56;5008165;28;51116;-69
2022/06/28 06:01:11;;;;;;;;;1.00;1.00;;;;;-147.17;100.00;59696.56;5007741;28;51258;-71
2022/06/28 06:03:37;;;;;;;;;1.00;0.00;;;;;-147.17;100.00;59696.56;5006037;28;51147;-71
2022/06/28 06:06:03;;;;;;;;;2.00;2.00;;;;;-147.17;100.00;59696.56;5006692;28;52949;-69
2022/06/28 06:08:28;;;;;;;;;1.33;1.33;;;;;-147.17;100.00;59696.56;5008555;28;51092;-69
2022/06/28 06:10:53;;;;;;;;;1.00;1.00;;;;;-147.17;100.00;59696.56;4997801;28;50982;-70
2022/06/28 06:13:19;;;;;;;;;2.00;2.00;;;;;-147.17;100.00;59696.56;5002417;28;51333;-71
2022/06/28 06:15:44;;;;;;;;;1.67;1.00;;;;;-147.17;100.00;59696.56;5002725;28;57722;-69
2022/06/28 06:18:09;;;;;;;;;0.00;0.00;;;;;-147.17;100.00;59696.56;5011404;28;51123;-72
2022/06/28 06:20:35;;;;;;;;;1.67;1.67;;;;;-147.17;100.00;59696.56;5285563;22;51486;-67
2022/06/28 06:23:00;;;;;;;;;1.00;1.00;;;;;-147.17;100.00;59696.56;5019115;28;53042;-68
2022/06/28 06:25:26;;;;;;;;;1.00;1.00;;;;;-147.17;100.00;59696.56;5023637;28;51217;-69
2022/06/28 06:27:51;;;;;;;;;1.00;1.00;;;;;-147.17;100.00;59696.56;4997671;28;51122;-69
2022/06/28 06:30:16;;;;;;;;;0.67;0.67;;;;;-147.17;100.00;59696.56;5037730;28;51211;-70
2022/06/28 06:32:42;;;;;;;;;1.67;1.67;;;;;-147.17;100.00;59696.56;5021550;28;51071;-70
2022/06/28 06:35:08;;;;;;;;;1.00;1.00;;;;;-147.17;100.00;59696.56;5031612;28;51771;-69
2022/06/28 06:37:34;;;;;;;;;0.00;0.00;;;;;-147.17;100.00;59696.56;5021666;28;53851;-71
2022/06/28 06:39:59;;;;;;;;;1.00;1.00;;;;;-147.17;100.00;59696.56;5016817;28;51254;-70
2022/06/28 06:42:25;;;;;;;;;2.00;2.00;;;;;-147.17;100.00;59696.56;5025660;28;51070;-69
2022/06/28 06:44:50;;;;;;;;;1.00;1.00;;;;;-147.17;100.00;59696.56;5018052;28;51685;-71
2022/06/28 06:47:16;;;;;;;;;1.33;0.67;;;;;-147.17;100.00;59696.56;5025235;28;51205;-69
2022/06/28 06:49:41;;;;;;;;;1.00;1.00;;;;;-147.17;100.00;59696.56;5021886;28;51027;-70
2022/06/28 06:52:06;;;;;;;;;2.00;1.00;;;;;-147.17;100.00;59696.56;5017998;28;51007;-70
2022/06/28 06:54:32;;;;;;;;;1.33;1.33;;;;;-147.17;100.00;59696.56;5025230;28;51844;-70
2022/06/28 06:56:57;;;;;;;;;2.67;1.00;;;;;-147.17;100.00;59696.56;5022249;28;51079;-70
2022/06/28 06:59:22;;;;;;;;;2.00;2.00;;;;;-147.17;100.00;59696.56;5031362;28;51106;-70
2022/06/28 07:01:48;;;;;;;;;0.00;0.00;;;;;-147.17;100.00;59696.56;5029972;28;51162;-69
2022/06/28 07:04:15;;;;;;;;;1.00;1.00;;;;;-147.17;100.00;59696.56;5029588;28;51110;-69
2022/06/28 07:06:40;;;;;;;;;1.00;1.00;;;;;-147.17;100.00;59696.56;5027405;28;51128;-69
2022/06/28 07:09:05;;;;;;;;;1.67;1.67;;;;;-147.17;100.00;59696.56;5019136;28;51007;-70
2022/06/28 07:11:32;;;;;;;;;2.00;0.33;;;;;-147.17;100.00;59696.56;5014769;28;51111;-71
2022/06/28 07:13:57;;;;;;;;;1.00;0.00;;;;;-147.17;100.00;59696.56;5027178;28;52016;-70
2022/06/28 07:16:22;;;;;;;;;0.00;0.00;;;;;-147.17;100.00;59696.56;5029275;28;51079;-69
2022/06/28 07:18:48;;;;;;;;;1.00;0.00;;;;;-147.17;100.00;59696.56;5018832;28;51049;-71
2022/06/28 07:21:13;;;;;;;;;0.00;0.00;;;;;-147.17;100.00;59696.56;5005521;28;51127;-71
2022/06/28 07:23:39;;;;;;;;;4.67;2.33;;;;;-147.17;100.00;59696.56;5004521;28;51016;-71
2022/06/28 07:26:04;;;;;;;;;1.33;1.00;;;;;-147.17;100.00;59696.56;5000930;28;50930;-71
2022/06/28 07:31:05;;;;;;;;;1.00;0.67;;;;;-147.17;100.00;59696.56;4900603;26;51345;-69
2022/06/28 07:33:30;;;;;;;;;0.00;0.00;;;;;-147.17;100.00;59696.56;4993098;28;51894;-69
2022/06/28 07:35:56;;;;;;;;;1.33;1.33;;;;;-147.17;100.00;59696.56;4992913;28;51013;-70
2022/06/28 07:38:21;;;;;;;;;3.33;3.00;;;;;-147.17;100.00;59696.56;4991642;28;51225;-70
2022/06/28 07:40:47;;;;;;;;;0.67;0.67;;;;;-147.17;100.00;59696.56;4992738;28;51023;-70
2022/06/28 07:43:12;;;;;;;;;3.33;3.33;;;;;-147.17;100.00;59696.56;4993568;28;51028;-69
2022/06/28 07:45:39;;;;;;;;;2.00;2.00;;;;;-147.17;100.00;59696.56;4992016;28;51043;-71
2022/06/28 07:48:06;;;;;;;;;0.67;0.67;;;;;-147.17;100.00;59696.56;4994668;28;51194;-72
2022/06/28 07:53:17;;;;;;;;;0.33;0.00;;;;;-147.17;100.00;59696.56;4991890;28;51241;-72
2022/06/28 07:55:42;;;;;;;;;1.00;1.00;;;;;-147.17;100.00;59696.56;4987263;28;51068;-70
2022/06/28 07:58:08;;;;;;;;;1.00;1.00;;;;;-147.17;100.00;59696.56;4992058;28;51269;-69
2022/06/28 08:00:33;;;;;;;;;1.33;0.33;;;;;-147.17;100.00;59696.56;4993620;28;51067;-70
2022/06/28 08:02:58;;;;;;;;;1.00;1.00;;;;;-147.17;100.00;59696.56;4993261;28;51422;-69
2022/06/28 08:05:24;;;;;;;;;2.00;0.00;;;;;-147.17;100.00;59696.56;4991232;28;51076;-72
2022/06/28 08:07:50;;;;;;;;;0.33;0.33;;;;;-147.17;100.00;59696.56;4993170;28;51131;-71
2022/06/28 08:10:16;;;;;;;;;1.00;1.00;;;;;-147.17;100.00;59696.56;4988449;28;51148;-71
2022/06/28 08:12:41;;;;;;;;;1.00;1.00;;;;;-147.17;100.00;59696.56;4981348;28;52055;-70
2022/06/28 08:15:07;;;;;;;;;1.33;1.33;;;;;-147.17;100.00;59696.56;4982973;28;51178;-72
2022/06/28 08:17:33;;;;;;;;;2.67;2.00;;;;;-147.17;100.00;59696.56;4983859;28;51180;-70
2022/06/28 08:19:58;;;;;;;;;2.67;2.33;;;;;-147.17;100.00;59696.56;4980360;28;51253;-73
2022/06/28 08:22:24;;;;;;;;;1.00;1.00;;;;;-147.17;100.00;59696.56;4980203;28;51562;-71
2022/06/28 08:24:49;;;;;;;;;1.00;1.00;;;;;-147.17;100.00;59696.56;4975155;28;51244;-72
2022/06/28 08:27:15;;;;;;;;;2.00;1.00;;;;;-147.17;100.00;59696.56;4980533;28;52026;-71
2022/06/28 08:29:42;;;;;;;;;3.67;2.00;;;;;-147.17;100.00;59696.56;4992423;28;52253;-73
2022/06/28 08:32:09;;;;;;;;;3.33;3.33;;;;;-147.17;100.00;59696.56;4998014;28;52853;-75
2022/06/28 08:34:34;;;;;;;;;3.00;3.00;;;;;-147.17;100.00;59696.56;4998431;28;51146;-74
2022/06/28 08:37:00;;;;;;;;;2.00;2.00;;;;;-147.17;100.00;59696.56;5000550;28;51185;-73
2022/06/28 08:39:25;;;;;;;;;1.33;1.33;;;;;-147.17;100.00;59696.56;5003303;28;51348;-72
2022/06/28 08:41:52;;;;;;;;;3.00;3.00;;;;;-147.17;100.00;59696.56;4996520;28;51372;-74
2022/06/28 08:44:18;;;;;;;;;2.00;2.00;;;;;-147.17;100.00;59696.56;5003761;28;52949;-72
2022/06/28 08:46:47;;;;;;;;;3.00;3.00;;;;;-147.17;100.00;59696.56;5001914;28;51074;-74
2022/06/28 08:49:18;;;;;;;;;3.33;2.67;;;;;-147.17;100.00;59696.56;5003010;28;50948;-73
2022/06/28 08:51:44;;;;;;;;;1.33;1.33;;;;;-147.17;100.00;59696.56;4995198;28;53858;-73
2022/06/28 08:54:12;;;;;;;;;11.67;10.67;;;;;-147.17;100.00;59696.56;5016751;28;53089;-73
2022/06/28 08:56:38;;;;;;;;;3.00;2.00;;;;;-147.17;100.00;59696.56;5006621;28;51842;-73
2022/06/28 08:59:06;;;;;;;;;1.00;1.00;;;;;-147.17;100.00;59696.56;4997504;28;51204;-73
2022/06/28 09:01:31;;;;;;;;;2.00;2.00;;;;;-147.17;100.00;59696.56;4994315;28;52607;-75
2022/06/28 09:04:00;;;;;;;;;1.00;1.00;;;;;-147.17;100.00;59696.56;4998407;28;51125;-72
2022/06/28 09:06:25;;;;;;;;;4.33;4.00;;;;;-147.17;100.00;59696.56;5003171;28;51292;-73
2022/06/28 09:08:51;;;;;;;;;2.00;2.00;;;;;-147.17;100.00;59696.56;4998460;28;51701;-72
2022/06/28 09:11:16;;;;;;;;;1.67;1.67;;;;;-147.17;100.00;59696.56;5000028;28;51906;-74
2022/06/28 09:13:42;;;;;;;;;2.67;2.00;;;;;-147.17;100.00;59696.56;4998362;28;51172;-74
2022/06/28 09:16:07;;;;;;;;;2.67;2.67;;;;;-147.17;100.00;59696.56;4996429;28;51167;-74
2022/06/28 09:18:36;;;;;;;;;1.67;1.67;;;;;-147.17;100.00;59696.56;4997506;28;51200;-75
2022/06/28 09:21:09;;;;;;;;;1.33;1.00;;;;;-147.17;100.00;59696.56;4997911;28;51172;-74
2022/06/28 09:23:38;;;;;;;;;1.33;1.33;;;;;-147.17;100.00;59696.56;4994916;28;51359;-74
2022/06/28 09:26:06;;;;;;;;;0.00;0.00;;;;;-147.17;100.00;59696.56;4999299;28;51325;-74
2022/06/28 09:28:33;;;;;;;;;2.00;2.00;;;;;-147.17;100.00;59696.56;4995191;28;51461;-75
2022/06/28 09:31:16;;;;;;;;;1.00;1.00;;;;;-147.17;100.00;59696.56;5001809;28;51318;-72
2022/06/28 09:34:05;;;;;;;;;4.33;4.33;;;;;-147.17;100.00;59696.56;4995132;28;51327;-73
2022/06/28 09:36:38;;;;;;;;;1.00;1.00;;;;;-147.17;100.00;59696.56;4999742;28;51224;-66
2022/06/28 09:39:16;;;;;;;;;0.00;0.00;;;;;-147.17;100.00;59696.56;5010371;28;51354;-70
2022/06/28 09:41:50;;;;;;;;;2.00;1.00;;;;;-147.17;100.00;59696.56;5005209;28;52105;-70
2022/06/28 09:44:17;;;;;;;;;1.33;1.00;;;;;-147.17;100.00;59696.56;5002305;28;51178;-70
2022/06/28 09:46:43;;;;;;;;;2.67;2.00;;;;;-147.17;100.00;59696.56;4996110;28;51248;-70
2022/06/28 09:49:09;;;;;;;;;0.00;0.00;;;;;-147.17;100.00;59696.56;4996420;28;51110;-71
2022/06/28 09:51:36;;;;;;;;;1.00;1.00;;;;;-147.17;100.00;59696.56;4994874;28;51291;-72
2022/06/28 09:54:05;;;;;;;;;1.00;1.00;;;;;-147.17;100.00;59696.56;4999237;28;51172;-73
2022/06/28 09:56:34;;;;;;;;;2.00;0.67;;;;;-147.17;100.00;59696.56;5001667;28;51125;-72
2022/06/28 09:59:00;;;;;;;;;1.33;0.67;;;;;-147.17;100.00;59696.56;5011575;28;51058;-71
2022/06/28 10:01:25;;;;;;;;;0.00;0.00;;;;;-147.17;100.00;59696.56;5006771;28;51919;-70
2022/06/28 10:03:52;;;;;;;;;1.00;1.00;;;;;-147.17;100.00;59696.56;5006077;28;50940;-69
2022/06/28 10:06:21;;;;;;;;;2.00;2.00;;;;;-147.17;100.00;59696.56;4993884;28;51245;-71
2022/06/28 10:08:47;;;;;;;;;4.00;4.00;;;;;-147.17;100.00;59696.56;5008339;28;51409;-70
2022/06/28 10:11:12;;;;;;;;;2.00;2.00;;;;;-147.17;100.00;59696.56;5010899;28;50942;-71
2022/06/28 10:17:04;;;;;;;;;2.00;2.00;;;;;-147.17;100.00;59696.56;5009531;28;50983;-69
2022/06/28 10:19:33;;;;;;;;;1.33;1.33;;;;;-147.17;100.00;59696.56;5011297;28;51347;-70
2022/06/28 10:21:58;;;;;;;;;1.33;1.33;;;;;-147.17;100.00;59696.56;5009523;28;52116;-70
2022/06/28 10:24:54;;;;;;;;;1.00;1.00;;;;;-147.17;100.00;59696.56;4997903;28;51109;-71
2022/06/28 10:27:19;;;;;;;;;1.00;0.00;;;;;-147.17;100.00;59696.56;5002564;28;51143;-69
2022/06/28 10:30:14;;;;;;;;;4.00;4.00;;;;;-147.17;100.00;59696.56;4997333;28;51240;-71
2022/06/28 10:32:42;;;;;;;;;3.67;3.67;;;;;-147.17;100.00;59696.56;4993744;28;51928;-69
2022/06/28 10:35:07;;;;;;;;;1.33;1.33;;;;;-147.17;100.00;59696.56;5003801;28;51228;-70
2022/06/28 10:37:33;;;;;;;;;1.00;1.00;;;;;-147.17;100.00;59696.56;4993064;28;52458;-69
2022/06/28 10:40:23;;;;;;;;;2.00;2.00;;;;;-147.17;100.00;59696.56;5000537;28;51082;-70
2022/06/28 10:42:50;;;;;;;;;3.00;3.00;;;;;-147.17;100.00;59696.56;4993996;28;52060;-71
2022/06/28 10:45:15;;;;;;;;;2.00;2.00;;;;;-147.17;100.00;59696.56;5010815;28;50987;-70
2022/06/28 10:48:07;;;;;;;;;2.00;2.00;;;;;-147.17;100.00;59696.56;5010037;28;51178;-69
2022/06/28 10:50:59;;;;;;;;;2.00;2.00;;;;;-147.17;100.00;59696.56;5011482;28;51274;-70
2022/06/28 10:53:33;;;;;;;;;2.00;2.00;;;;;-147.17;100.00;59696.56;5009687;28;53299;-70
2022/06/28 10:56:10;;;;;;;;;2.00;2.00;;;;;-147.17;100.00;59696.56;5011130;28;50921;-71
2022/06/28 10:58:58;;;;;;;;;1.33;1.00;;;;;-147.17;100.00;59696.56;5003227;28;51314;-70
2022/06/28 11:01:44;;;;;;;;;3.00;3.00;;;;;-147.17;100.00;59696.56;5005311;28;51217;-70
2022/06/28 11:04:21;;;;;;;;;1.00;1.00;;;;;-147.17;100.00;59696.56;5010650;28;50976;-69
2022/06/28 11:06:53;;;;;;;;;2.67;2.67;;;;;-147.17;100.00;59696.56;4997104;28;51213;-69
2022/06/28 11:09:36;;;;;;;;;2.00;2.00;;;;;-147.17;100.00;59696.56;5010797;28;50956;-70
2022/06/28 11:12:06;;;;;;;;;6.00;3.00;;;;;-147.17;100.00;59696.56;4998091;28;51026;-70
2022/06/28 11:14:35;;;;;;;;;1.33;1.33;;;;;-147.17;100.00;59696.56;5004104;28;51117;-70
2022/06/28 11:17:12;;;;;;;;;1.67;1.67;;;;;-147.17;100.00;59696.56;5004810;28;51150;-71
2022/06/28 11:19:38;;;;;;;;;3.00;3.00;;;;;-147.17;100.00;59696.56;5003187;28;51125;-70
2022/06/28 11:22:04;;;;;;;;;3.00;3.00;;;;;-147.17;100.00;59696.56;5008927;28;50990;-70
2022/06/28 11:24:29;;;;;;;;;1.33;1.00;;;;;-147.17;100.00;59696.56;5006936;28;51994;-72
2022/06/28 11:27:20;;;;;;;;;3.33;3.00;;;;;-147.17;100.00;59696.56;4995394;28;50983;-70